createdAt,value
2018-09-19T00:01:29.807Z,253.30
2018-09-19T00:03:56.944Z,218.53
2018-09-19T00:06:24.069Z,212.47
2018-09-19T00:08:51.181Z,222.40
2018-09-19T00:11:18.298Z,197.80
2018-09-19T00:13:45.449Z,258.33
2018-09-19T00:16:12.563Z,218.80
2018-09-19T00:18:39.669Z,219.63
2018-09-19T00:21:06.796Z,217.30
2018-09-19T00:23:33.905Z,223.97
2018-09-19T00:26:01.108Z,202.53
2018-09-19T00:28:28.228Z,209.00
2018-09-19T00:30:55.349Z,258.40
2018-09-19T00:33:22.449Z,213.53
2018-09-19T00:35:49.729Z,270.47
2018-09-19T00:38:16.848Z,207.87
2018-09-19T00:40:44.009Z,198.40
2018-09-19T00:43:11.141Z,244.00
2018-09-19T00:45:38.321Z,216.87
2018-09-19T00:48:05.664Z,225.33
2018-09-19T00:50:32.817Z,220.93
2018-09-19T00:53:00.088Z,261.47
2018-09-19T00:55:27.265Z,244.70
2018-09-19T00:57:54.397Z,226.30
2018-09-19T01:00:21.533Z,212.77
2018-09-19T01:02:48.661Z,214.63
2018-09-19T01:05:15.981Z,216.43
2018-09-19T01:07:43.119Z,271.57
2018-09-19T01:10:10.265Z,225.23
2018-09-19T01:12:37.396Z,255.07
2018-09-19T01:15:04.598Z,243.13
2018-09-19T01:17:31.749Z,228.57
2018-09-19T01:19:58.928Z,228.47
2018-09-19T01:22:26.074Z,216.30
2018-09-19T01:24:53.205Z,214.77
2018-09-19T01:27:20.352Z,222.47
2018-09-19T01:29:47.496Z,252.20
2018-09-19T01:32:14.663Z,212.90
2018-09-19T01:34:41.813Z,213.17
2018-09-19T01:37:08.965Z,211.27
2018-09-19T01:39:36.110Z,224.30
2018-09-19T01:42:03.261Z,257.67
2018-09-19T01:44:30.408Z,221.80
2018-09-19T01:46:57.538Z,215.10
2018-09-19T01:49:24.667Z,240.83
2018-09-19T01:52:09.581Z,250.90
2018-09-19T01:54:36.742Z,231.10
2018-09-19T01:57:03.909Z,211.80
2018-09-19T01:59:31.055Z,198.60
2018-09-19T02:01:58.219Z,204.23
2018-09-19T02:04:25.377Z,196.20
2018-09-19T02:06:52.529Z,237.13
2018-09-19T02:09:19.687Z,227.87
2018-09-19T02:11:46.878Z,203.10
2018-09-19T02:14:14.038Z,202.87
2018-09-19T02:16:41.194Z,209.67
2018-09-19T02:19:08.669Z,196.83
2018-09-19T02:21:35.966Z,206.77
2018-09-19T02:24:03.139Z,253.70
2018-09-19T02:26:30.510Z,207.53
2018-09-19T02:28:57.672Z,202.97
2018-09-19T02:31:24.870Z,204.13
2018-09-19T02:33:52.316Z,249.87
2018-09-19T02:36:23.355Z,214.60
2018-09-19T02:38:51.818Z,246.17
2018-09-19T02:41:19.366Z,210.90
2018-09-19T02:43:46.794Z,196.70
2018-09-19T02:46:14.236Z,256.07
2018-09-19T02:48:41.633Z,242.23
2018-09-19T02:51:08.914Z,213.67
2018-09-19T02:53:36.023Z,194.20
2018-09-19T02:56:03.195Z,227.33
2018-09-19T02:58:30.345Z,208.03
2018-09-19T03:00:57.497Z,229.27
2018-09-19T03:03:24.712Z,218.67
2018-09-19T03:05:51.869Z,233.47
2018-09-19T03:08:19.022Z,254.63
2018-09-19T03:10:46.178Z,192.33
2018-09-19T03:13:13.336Z,209.13
2018-09-19T03:15:40.535Z,208.53
2018-09-19T03:18:07.690Z,206.90
2018-09-19T03:20:34.848Z,228.73
2018-09-19T03:23:02.020Z,203.23
2018-09-19T03:25:29.166Z,186.20
2018-09-19T03:27:56.339Z,253.17
2018-09-19T03:30:23.546Z,211.80
2018-09-19T03:32:50.709Z,217.93
2018-09-19T03:35:17.963Z,204.57
2018-09-19T03:37:45.118Z,209.07
2018-09-19T03:40:12.274Z,240.60
2018-09-19T03:42:39.406Z,198.50
2018-09-19T03:45:06.633Z,217.43
2018-09-19T03:47:33.765Z,231.33
2018-09-19T03:50:00.918Z,201.40
2018-09-19T03:52:28.058Z,229.30
2018-09-19T03:54:55.195Z,239.30
2018-09-19T03:57:22.323Z,196.97
2018-09-19T03:59:49.459Z,209.47
2018-09-19T04:02:16.590Z,201.87
2018-09-19T04:04:43.725Z,193.27
2018-09-19T04:07:10.855Z,219.33
2018-09-19T04:09:37.990Z,190.33
2018-09-19T04:12:05.194Z,176.70
2018-09-19T04:14:32.319Z,194.50
2018-09-19T04:16:59.454Z,198.50
2018-09-19T04:19:26.611Z,187.40
2018-09-19T04:21:53.725Z,176.57
2018-09-19T04:24:20.854Z,181.10
2018-09-19T04:26:48.008Z,177.57
2018-09-19T04:29:15.466Z,192.67
2018-09-19T04:31:42.811Z,217.67
2018-09-19T04:34:09.950Z,197.20
2018-09-19T04:36:37.102Z,207.80
2018-09-19T04:39:06.708Z,217.70
2018-09-19T04:41:33.865Z,185.80
2018-09-19T04:44:01.177Z,183.87
2018-09-19T04:46:28.326Z,220.97
2018-09-19T04:48:55.461Z,195.67
2018-09-19T04:51:22.654Z,219.17
2018-09-19T04:53:49.761Z,211.60
2018-09-19T04:56:16.922Z,194.90
2018-09-19T04:58:44.089Z,224.83
2018-09-19T05:01:11.251Z,220.73
2018-09-19T05:03:38.407Z,187.10
2018-09-19T05:06:05.591Z,185.53
2018-09-19T05:08:32.751Z,182.07
2018-09-19T05:10:59.955Z,190.27
2018-09-19T05:13:27.111Z,215.13
2018-09-19T05:15:54.280Z,193.33
2018-09-19T05:18:21.432Z,197.83
2018-09-19T05:20:48.599Z,205.47
2018-09-19T05:23:15.750Z,203.47
2018-09-19T05:25:42.920Z,208.00
2018-09-19T05:28:10.098Z,181.73
2018-09-19T05:30:37.219Z,195.70
2018-09-19T05:33:04.390Z,199.97
2018-09-19T05:35:31.558Z,230.77
2018-09-19T05:37:58.708Z,241.77
2018-09-19T05:40:25.870Z,187.40
2018-09-19T05:42:53.038Z,194.60
2018-09-19T05:45:20.198Z,241.13
2018-09-19T05:47:47.350Z,184.33
2018-09-19T05:50:14.495Z,201.43
2018-09-19T05:52:41.681Z,220.30
2018-09-19T05:55:08.934Z,220.27
2018-09-19T05:57:36.085Z,193.43
2018-09-19T06:00:03.734Z,191.67
2018-09-19T06:02:30.935Z,218.07
2018-09-19T06:04:58.158Z,244.37
2018-09-19T06:07:25.410Z,240.93
2018-09-19T06:09:52.577Z,205.20
2018-09-19T06:12:19.735Z,248.07
2018-09-19T06:14:46.891Z,257.73
2018-09-19T06:17:14.218Z,238.13
2018-09-19T06:19:41.438Z,315.77
2018-09-19T06:22:08.832Z,294.63
2018-09-19T06:24:36.262Z,257.67
2018-09-19T06:27:03.454Z,290.43
2018-09-19T06:29:30.606Z,313.57
2018-09-19T06:31:57.845Z,286.63
2018-09-19T06:34:26.597Z,329.27
2018-09-19T06:36:53.847Z,394.20
2018-09-19T06:39:20.974Z,390.10
2018-09-19T06:41:48.114Z,402.43
2018-09-19T06:44:15.303Z,430.87
2018-09-19T06:46:42.460Z,487.13
2018-09-19T06:49:09.696Z,503.70
2018-09-19T06:51:36.841Z,497.43
2018-09-19T06:54:03.967Z,529.73
2018-09-19T06:56:31.126Z,593.77
2018-09-19T06:58:58.273Z,524.70
2018-09-19T07:01:25.457Z,582.00
2018-09-19T07:03:52.614Z,574.10
2018-09-19T07:06:19.919Z,611.37
2018-09-19T07:08:47.230Z,596.27
2018-09-19T07:11:14.498Z,658.80
2018-09-19T07:13:41.737Z,581.67
2018-09-19T07:16:08.873Z,645.80
2018-09-19T07:18:36.023Z,602.60
2018-09-19T07:21:03.179Z,640.47
2018-09-19T07:23:30.306Z,584.37
2018-09-19T07:25:57.551Z,605.47
2018-09-19T07:28:24.714Z,641.00
2018-09-19T07:30:51.998Z,606.20
2018-09-19T07:33:19.158Z,641.40
2018-09-19T07:35:46.310Z,655.80
2018-09-19T07:38:13.602Z,653.67
2018-09-19T07:40:40.759Z,726.70
2018-09-19T07:43:07.896Z,760.33
2018-09-19T07:45:35.043Z,678.13
2018-09-19T07:48:02.247Z,714.77
2018-09-19T07:50:29.557Z,718.50
2018-09-19T07:53:00.212Z,708.87
2018-09-19T07:55:28.240Z,703.93
2018-09-19T07:57:55.916Z,779.10
2018-09-19T08:00:23.064Z,703.83
2018-09-19T08:02:50.257Z,741.33
2018-09-19T08:05:17.487Z,770.13
2018-09-19T08:07:44.626Z,765.33
2018-09-19T08:10:11.762Z,766.40
2018-09-19T08:12:38.975Z,809.50
2018-09-19T08:15:06.137Z,783.63
2018-09-19T08:17:33.374Z,736.77
2018-09-19T08:20:00.550Z,805.17
2018-09-19T08:22:27.755Z,819.33
2018-09-19T08:24:54.910Z,824.93
2018-09-19T08:27:22.203Z,747.00
2018-09-19T08:29:49.412Z,822.73
2018-09-19T08:32:16.649Z,772.37
2018-09-19T08:34:43.830Z,761.63
2018-09-19T08:37:10.973Z,811.20
2018-09-19T08:39:38.277Z,832.93
2018-09-19T08:42:05.603Z,817.33
2018-09-19T08:44:32.796Z,823.53
2018-09-19T08:46:59.960Z,773.23
2018-09-19T08:49:27.121Z,759.93
2018-09-19T08:51:54.279Z,785.90
2018-09-19T08:54:21.444Z,763.77
2018-09-19T08:56:48.593Z,848.33
2018-09-19T08:59:15.758Z,801.60
2018-09-19T09:01:42.983Z,771.50
2018-09-19T09:04:10.158Z,836.83
2018-09-19T09:06:37.358Z,846.33
2018-09-19T09:09:05.592Z,850.80
2018-09-19T09:11:32.762Z,815.27
2018-09-19T09:13:59.937Z,834.13
2018-09-19T09:16:27.143Z,803.97
2018-09-19T09:18:54.580Z,750.77
2018-09-19T09:21:22.047Z,747.37
2018-09-19T09:23:49.477Z,750.30
2018-09-19T09:26:16.668Z,793.13
2018-09-19T09:28:43.825Z,740.60
2018-09-19T09:31:11.027Z,748.13
2018-09-19T09:33:38.151Z,716.37
2018-09-19T09:36:05.625Z,792.43
2018-09-19T09:38:32.965Z,725.10
2018-09-19T09:41:00.098Z,699.97
2018-09-19T09:43:27.288Z,702.93
2018-09-19T09:45:54.447Z,762.33
2018-09-19T09:48:21.673Z,732.47
2018-09-19T09:50:48.856Z,700.47
2018-09-19T09:53:16.066Z,698.53
2018-09-19T09:55:43.170Z,708.50
2018-09-19T09:58:10.368Z,693.07
2018-09-19T10:00:39.487Z,766.83
2018-09-19T10:03:07.160Z,677.03
2018-09-19T10:05:34.297Z,725.93
2018-09-19T10:08:01.546Z,734.43
2018-09-19T10:10:28.793Z,714.07
2018-09-19T10:12:55.947Z,705.60
2018-09-19T10:15:23.099Z,699.83
2018-09-19T10:17:50.266Z,766.03
2018-09-19T10:20:17.431Z,690.23
2018-09-19T10:22:44.667Z,708.90
2018-09-19T10:25:11.892Z,710.27
2018-09-19T10:27:39.021Z,699.60
2018-09-19T10:30:06.179Z,663.63
2018-09-19T10:32:33.380Z,701.23
2018-09-19T10:35:00.512Z,771.20
2018-09-19T10:37:27.682Z,786.93
2018-09-19T10:39:54.817Z,708.17
2018-09-19T10:42:21.971Z,734.77
2018-09-19T10:44:49.115Z,705.37
2018-09-19T10:47:16.371Z,679.40
2018-09-19T10:49:43.520Z,682.50
2018-09-19T10:52:10.732Z,664.73
2018-09-19T10:54:37.878Z,679.30
2018-09-19T10:57:05.303Z,654.03
2018-09-19T10:59:32.423Z,656.83
2018-09-19T11:01:59.693Z,638.50
2018-09-19T11:04:26.843Z,629.60
2018-09-19T11:06:54.019Z,676.03
2018-09-19T11:09:21.162Z,671.83
2018-09-19T11:11:48.302Z,665.13
2018-09-19T11:14:15.444Z,652.43
2018-09-19T11:16:42.732Z,762.53
2018-09-19T11:19:09.884Z,746.47
2018-09-19T11:21:37.030Z,672.37
2018-09-19T11:24:04.206Z,694.13
2018-09-19T11:26:31.391Z,677.93
2018-09-19T11:28:58.515Z,651.70
2018-09-19T11:31:25.677Z,703.03
2018-09-19T11:33:52.823Z,636.40
2018-09-19T11:36:20.066Z,639.03
2018-09-19T11:38:47.252Z,653.03
2018-09-19T11:41:14.414Z,709.33
2018-09-19T11:43:41.571Z,736.50
2018-09-19T11:46:08.775Z,765.53
2018-09-19T11:48:35.939Z,709.43
2018-09-19T11:51:03.103Z,655.90
2018-09-19T11:53:30.270Z,788.90
